createdAt,value
2022-10-01T00:01:17.794Z,10.35
2022-10-01T00:03:45.036Z,10.63
2022-10-01T00:06:20.449Z,10.43
2022-10-01T00:08:49.370Z,10.35
2022-10-01T00:11:19.224Z,10.13
2022-10-01T00:13:46.354Z,10.35
2022-10-01T00:16:16.410Z,12.02
2022-10-01T00:18:45.647Z,10.50
2022-10-01T00:21:15.045Z,10.75
2022-10-01T00:23:42.704Z,12.35
2022-10-01T00:26:17.777Z,10.20
2022-10-01T00:28:46.286Z,10.93
2022-10-01T00:31:14.937Z,10.02
2022-10-01T00:33:42.656Z,10.75
2022-10-01T00:36:10.681Z,10.55
2022-10-01T00:38:38.525Z,11.35
2022-10-01T00:41:05.453Z,11.82
2022-10-01T00:43:35.231Z,12.65
2022-10-01T00:46:25.504Z,12.25
2022-10-01T00:49:00.205Z,12.20
2022-10-01T00:51:33.323Z,12.43
2022-10-01T00:54:08.549Z,10.80
2022-10-01T00:56:36.074Z,10.00
2022-10-01T00:59:03.228Z,10.60
2022-10-01T01:01:30.257Z,9.40
2022-10-01T01:03:57.872Z,11.95
2022-10-01T01:06:24.512Z,10.35
2022-10-01T01:08:55.314Z,10.05
2022-10-01T01:11:34.379Z,9.07
2022-10-01T01:14:28.333Z,10.45
2022-10-01T01:17:01.497Z,11.25
2022-10-01T01:19:38.414Z,13.02
2022-10-01T01:22:07.706Z,11.98
2022-10-01T01:24:44.154Z,11.10
2022-10-01T01:27:51.379Z,11.63
2022-10-01T01:30:19.323Z,10.27
2022-10-01T01:32:55.515Z,20.95
2022-10-01T01:35:27.488Z,11.60
2022-10-01T01:38:02.195Z,9.85
2022-10-01T01:40:32.025Z,10.55
2022-10-01T01:43:00.652Z,8.93
2022-10-01T01:45:30.812Z,9.48
2022-10-01T01:48:02.332Z,8.55
2022-10-01T01:50:34.510Z,11.60
2022-10-01T01:53:02.214Z,9.45
2022-10-01T01:55:31.361Z,9.82
2022-10-01T01:57:59.037Z,9.73
2022-10-01T02:00:25.751Z,10.82
2022-10-01T02:02:54.261Z,10.38
2022-10-01T02:05:25.826Z,12.30
2022-10-01T02:08:15.010Z,11.63
2022-10-01T02:10:50.530Z,12.55
2022-10-01T02:13:30.122Z,11.18
2022-10-01T02:16:09.764Z,12.45
2022-10-01T02:19:11.046Z,12.20
2022-10-01T02:21:46.820Z,11.60
2022-10-01T02:24:36.518Z,10.73
2022-10-01T02:27:10.845Z,11.18
2022-10-01T02:29:39.783Z,12.40
2022-10-01T02:32:08.595Z,12.70
2022-10-01T02:34:35.872Z,11.55
2022-10-01T02:37:05.306Z,11.38
2022-10-01T02:39:34.706Z,10.70
2022-10-01T02:42:04.054Z,11.00
2022-10-01T02:44:38.680Z,11.57
2022-10-01T02:47:08.182Z,10.68
2022-10-01T02:49:36.985Z,11.82
2022-10-01T02:52:09.896Z,10.98
2022-10-01T02:54:47.826Z,11.55
2022-10-01T02:57:29.654Z,11.90
2022-10-01T03:00:01.556Z,12.05
2022-10-01T03:02:31.656Z,11.75
2022-10-01T03:04:59.380Z,11.25
2022-10-01T03:07:27.760Z,12.65
2022-10-01T03:09:54.730Z,11.45
2022-10-01T03:12:22.565Z,11.27
2022-10-01T03:14:49.835Z,11.45
2022-10-01T03:17:16.998Z,11.50
2022-10-01T03:19:43.636Z,11.20
2022-10-01T03:22:13.090Z,11.93
2022-10-01T03:24:39.852Z,11.80
2022-10-01T03:27:06.984Z,10.27
2022-10-01T03:29:33.739Z,10.93
2022-10-01T03:32:00.600Z,10.70
2022-10-01T03:34:27.331Z,12.65
2022-10-01T03:36:54.011Z,11.88
2022-10-01T03:39:20.790Z,10.85
2022-10-01T03:41:47.369Z,11.23
2022-10-01T03:44:14.053Z,10.40
2022-10-01T03:46:40.797Z,11.95
2022-10-01T03:49:07.562Z,10.73
2022-10-01T03:51:36.362Z,11.52
2022-10-01T03:54:05.248Z,11.05
2022-10-01T03:56:31.877Z,10.90
2022-10-01T03:58:58.492Z,10.82
2022-10-01T04:01:26.420Z,12.30
2022-10-01T04:03:53.241Z,12.88
2022-10-01T04:06:20.303Z,12.10
2022-10-01T04:08:47.327Z,11.20
2022-10-01T04:11:14.427Z,10.48
2022-10-01T04:13:41.039Z,11.27
2022-10-01T04:16:08.217Z,12.55
2022-10-01T04:18:35.196Z,11.25
2022-10-01T04:21:02.621Z,11.48
2022-10-01T04:23:29.390Z,11.93
2022-10-01T04:25:59.679Z,9.75
2022-10-01T04:28:26.383Z,11.82
2022-10-01T04:31:13.380Z,11.65
2022-10-01T04:33:40.140Z,11.45
2022-10-01T04:36:07.038Z,10.88
2022-10-01T04:38:34.758Z,11.52
2022-10-01T04:41:01.344Z,10.55
2022-10-01T04:43:28.062Z,11.85
2022-10-01T04:45:54.698Z,10.57
2022-10-01T04:48:21.656Z,12.07
2022-10-01T04:50:48.288Z,13.68
2022-10-01T04:53:15.000Z,13.45
2022-10-01T04:55:42.419Z,15.30
2022-10-01T04:58:09.516Z,21.08
2022-10-01T05:00:36.525Z,40.90
2022-10-01T05:03:03.110Z,38.63
2022-10-01T05:05:33.008Z,29.33
2022-10-01T05:07:59.656Z,24.65
2022-10-01T05:10:26.608Z,24.63
2022-10-01T05:12:53.526Z,22.95
2022-10-01T05:15:20.573Z,22.95
2022-10-01T05:17:47.929Z,24.83
2022-10-01T05:20:20.744Z,24.10
2022-10-01T05:22:49.481Z,21.20
2022-10-01T05:25:17.494Z,20.15
2022-10-01T05:27:44.319Z,19.60
2022-10-01T05:30:12.867Z,19.75
2022-10-01T05:32:40.489Z,19.25
2022-10-01T05:35:08.510Z,18.80
2022-10-01T05:37:36.449Z,18.20
2022-10-01T05:40:03.989Z,18.85
2022-10-01T05:42:30.537Z,18.73
2022-10-01T05:44:57.733Z,19.73
2022-10-01T05:47:24.337Z,21.52
2022-10-01T05:49:51.182Z,22.13
2022-10-01T05:52:17.848Z,24.60
2022-10-01T05:54:44.507Z,24.83
2022-10-01T05:57:11.463Z,26.33
2022-10-01T05:59:38.033Z,24.02
2022-10-01T06:02:04.865Z,25.02
2022-10-01T06:04:31.875Z,23.77
2022-10-01T06:06:58.997Z,25.65
2022-10-01T06:09:25.641Z,23.40
2022-10-01T06:11:52.340Z,21.55
2022-10-01T06:14:19.009Z,21.60
2022-10-01T06:16:47.273Z,23.70
2022-10-01T06:19:14.030Z,23.02
2022-10-01T06:21:40.882Z,21.80
2022-10-01T06:24:07.580Z,19.92
2022-10-01T06:26:34.273Z,18.33
2022-10-01T06:29:01.383Z,17.38
2022-10-01T06:31:29.080Z,16.85
2022-10-01T06:33:55.848Z,18.42
2022-10-01T06:36:24.273Z,16.58
2022-10-01T06:38:50.987Z,17.15
2022-10-01T06:41:18.644Z,15.73
2022-10-01T06:43:45.317Z,15.45
2022-10-01T06:46:12.006Z,15.38
2022-10-01T06:48:38.957Z,15.38
2022-10-01T06:51:05.937Z,16.17
2022-10-01T06:53:32.888Z,15.07
2022-10-01T06:56:07.798Z,15.57
2022-10-01T06:58:35.065Z,16.20
2022-10-01T07:01:03.882Z,16.30
2022-10-01T07:03:31.353Z,19.30
2022-10-01T07:06:05.727Z,18.70
2022-10-01T07:08:33.403Z,16.73
2022-10-01T07:11:02.822Z,13.32
2022-10-01T07:13:29.973Z,12.30
2022-10-01T07:15:56.943Z,11.80
2022-10-01T07:18:24.110Z,13.48
2022-10-01T07:20:50.739Z,10.55
2022-10-01T07:23:17.751Z,13.73
2022-10-01T07:25:45.059Z,13.65
2022-10-01T07:28:19.088Z,12.70
2022-10-01T07:33:18.276Z,14.75
2022-10-01T07:35:47.994Z,19.23
2022-10-01T07:38:14.899Z,18.75
2022-10-01T07:40:41.967Z,14.90
2022-10-01T07:43:09.195Z,22.83
2022-10-01T07:45:35.849Z,17.17
2022-10-01T07:48:04.018Z,18.88
2022-10-01T07:50:30.858Z,19.25
2022-10-01T07:52:59.045Z,19.45
2022-10-01T07:55:28.604Z,21.17
2022-10-01T07:57:57.671Z,19.67
2022-10-01T08:00:26.018Z,21.27
2022-10-01T08:02:54.332Z,22.23
2022-10-01T08:05:23.332Z,20.23
2022-10-01T08:07:50.535Z,21.05
2022-10-01T08:10:19.868Z,20.38
2022-10-01T08:12:46.710Z,21.15
2022-10-01T08:15:16.062Z,22.63
2022-10-01T08:17:43.657Z,21.63
2022-10-01T08:20:12.186Z,23.67
2022-10-01T08:22:42.111Z,23.25
2022-10-01T08:25:09.969Z,29.08
2022-10-01T08:27:37.024Z,26.15
2022-10-01T08:30:04.299Z,25.52
2022-10-01T08:32:31.287Z,27.63
2022-10-01T08:34:59.086Z,38.83
2022-10-01T08:37:27.333Z,43.30
2022-10-01T08:39:55.301Z,30.50
2022-10-01T08:43:03.353Z,33.33
2022-10-01T08:45:40.346Z,47.90
2022-10-01T08:48:38.741Z,45.90
2022-10-01T08:51:15.962Z,59.40
2022-10-01T08:53:48.389Z,59.47
2022-10-01T08:56:39.966Z,215.13
2022-10-01T08:59:37.854Z,55.72
2022-10-01T09:02:22.439Z,65.18
2022-10-01T09:04:55.081Z,72.32
2022-10-01T09:07:29.730Z,79.53
2022-10-01T09:10:04.531Z,62.28
2022-10-01T09:12:50.237Z,60.42
2022-10-01T09:15:31.720Z,66.57
2022-10-01T09:18:21.983Z,58.58
2022-10-01T09:20:55.242Z,56.28
2022-10-01T09:23:30.145Z,73.85
2022-10-01T09:25:59.370Z,65.03
2022-10-01T09:28:35.142Z,64.90
2022-10-01T09:31:24.976Z,69.40
2022-10-01T09:33:58.139Z,71.15
2022-10-01T09:36:52.319Z,74.13
2022-10-01T09:39:32.258Z,67.45
2022-10-01T09:42:00.022Z,67.25
2022-10-01T09:44:31.695Z,80.43
2022-10-01T09:46:58.501Z,139.00
2022-10-01T09:49:34.238Z,69.50
2022-10-01T09:52:28.315Z,75.50
2022-10-01T09:55:39.032Z,94.90
2022-10-01T09:58:13.932Z,87.00
2022-10-01T10:00:41.940Z,78.05
2022-10-01T10:03:08.992Z,78.80
2022-10-01T10:05:48.233Z,79.90
2022-10-01T10:08:14.994Z,76.82
2022-10-01T10:10:58.382Z,78.55
2022-10-01T10:13:31.932Z,68.67
2022-10-01T10:16:00.685Z,87.10
2022-10-01T10:18:36.337Z,70.28
2022-10-01T10:21:08.235Z,73.97
2022-10-01T10:23:34.983Z,77.72
2022-10-01T10:26:04.939Z,78.85
2022-10-01T10:28:46.000Z,76.88
2022-10-01T10:31:25.339Z,151.95
2022-10-01T10:33:58.490Z,144.15
2022-10-01T10:36:32.744Z,139.80
2022-10-01T10:39:00.519Z,172.20
2022-10-01T10:41:29.615Z,129.57
2022-10-01T10:44:01.574Z,137.02
2022-10-01T10:46:34.299Z,142.02
2022-10-01T10:49:10.711Z,128.65
2022-10-01T10:51:56.462Z,115.90
2022-10-01T10:54:37.747Z,137.80
2022-10-01T10:57:23.712Z,133.00
2022-10-01T10:59:59.663Z,116.63
2022-10-01T11:02:32.035Z,138.07
2022-10-01T11:05:20.584Z,139.32
2022-10-01T11:07:48.793Z,131.18
2022-10-01T11:10:52.855Z,132.95
2022-10-01T11:13:34.208Z,139.40
2022-10-01T11:16:30.381Z,134.80
2022-10-01T11:19:15.490Z,128.77
2022-10-01T11:21:48.660Z,110.70
2022-10-01T11:24:38.922Z,121.53
2022-10-01T11:27:36.453Z,109.70
2022-10-01T11:30:21.166Z,114.47
2022-10-01T11:33:03.574Z,127.97
2022-10-01T11:35:37.271Z,117.47
2022-10-01T11:38:42.081Z,135.65
2022-10-01T11:41:16.743Z,126.03
2022-10-01T11:43:51.496Z,118.18
2022-10-01T11:46:41.488Z,106.10
2022-10-01T11:49:32.788Z,110.63
2022-10-01T11:52:09.355Z,121.10
2022-10-01T11:54:42.240Z,92.25
2022-10-01T11:57:34.177Z,87.90
2022-10-01T12:00:13.922Z,96.32
2022-10-01T12:03:00.543Z,91.40
2022-10-01T12:05:31.518Z,85.00
2022-10-01T12:08:11.829Z,81.00
2022-10-01T12:10:45.167Z,86.45
2022-10-01T12:13:33.289Z,113.13
2022-10-01T12:17:04.713Z,96.70
2022-10-01T12:19:38.970Z,82.20
2022-10-01T12:22:20.311Z,93.55
2022-10-01T12:24:50.682Z,88.60
2022-10-01T12:27:26.531Z,102.88
2022-10-01T12:30:02.117Z,104.72
2022-10-01T12:32:37.655Z,95.32
2022-10-01T12:35:07.125Z,99.80
2022-10-01T12:37:55.852Z,101.10
2022-10-01T12:41:07.163Z,92.10
2022-10-01T12:43:43.779Z,93.55
2022-10-01T12:46:35.092Z,97.80
2022-10-01T12:49:24.258Z,99.15
2022-10-01T12:52:06.070Z,98.50
2022-10-01T12:54:51.005Z,96.75
2022-10-01T12:57:53.007Z,95.28
2022-10-01T13:00:22.855Z,91.15
2022-10-01T13:03:18.373Z,95.18
2022-10-01T13:06:14.617Z,92.38
2022-10-01T13:09:23.021Z,91.00
2022-10-01T13:11:55.719Z,86.13
2022-10-01T13:14:23.116Z,92.03
2022-10-01T13:17:11.706Z,98.68
2022-10-01T13:19:48.231Z,89.28
2022-10-01T13:22:19.552Z,96.00
2022-10-01T13:25:10.265Z,95.97
2022-10-01T13:27:42.531Z,89.03
2022-10-01T13:30:25.058Z,86.75
2022-10-01T13:33:01.183Z,77.28
2022-10-01T13:35:35.733Z,91.50
2022-10-01T13:38:17.580Z,83.72
2022-10-01T13:40:44.890Z,76.32
2022-10-01T13:43:21.707Z,83.45
2022-10-01T13:45:51.527Z,80.28
2022-10-01T13:48:32.607Z,74.55
2022-10-01T13:51:11.690Z,70.13
2022-10-01T13:53:41.910Z,68.93
2022-10-01T13:56:14.723Z,60.05
2022-10-01T13:58:43.802Z,59.22
2022-10-01T14:01:21.401Z,49.70
2022-10-01T14:04:06.068Z,49.58
2022-10-01T14:06:42.736Z,50.58
2022-10-01T14:09:26.309Z,55.97
2022-10-01T14:12:35.605Z,46.47
2022-10-01T14:15:47.724Z,45.40
2022-10-01T14:18:22.352Z,46.58
2022-10-01T14:21:18.084Z,43.65
2022-10-01T14:24:12.073Z,49.85
2022-10-01T14:27:17.180Z,48.78
2022-10-01T14:30:16.258Z,45.70
2022-10-01T14:33:10.702Z,48.30
2022-10-01T14:35:48.428Z,45.53
2022-10-01T14:38:20.643Z,45.47
2022-10-01T14:40:49.167Z,40.70
2022-10-01T14:43:18.671Z,43.38
2022-10-01T14:46:03.110Z,44.05
2022-10-01T14:48:31.942Z,40.40
2022-10-01T14:51:02.156Z,37.45
2022-10-01T14:53:32.185Z,42.42
2022-10-01T14:56:20.389Z,40.17
2022-10-01T14:58:55.324Z,43.63
2022-10-01T15:01:23.846Z,40.08
2022-10-01T15:03:51.595Z,40.97
2022-10-01T15:06:21.458Z,45.65
2022-10-01T15:08:53.561Z,44.35
2022-10-01T15:11:24.299Z,46.22
2022-10-01T15:13:53.231Z,41.28
2022-10-01T15:16:25.348Z,39.75
2022-10-01T15:18:59.343Z,40.78
2022-10-01T15:23:57.990Z,35.38
2022-10-01T15:26:31.954Z,41.42
2022-10-01T15:29:12.003Z,44.10
2022-10-01T15:31:39.917Z,37.38
2022-10-01T15:34:11.321Z,39.92
2022-10-01T15:36:39.050Z,43.13
2022-10-01T15:39:16.024Z,41.63
2022-10-01T15:41:42.707Z,38.92
2022-10-01T15:44:49.413Z,44.20
2022-10-01T15:47:37.467Z,36.67
2022-10-01T15:50:10.212Z,39.38
2022-10-01T15:52:55.566Z,44.10
2022-10-01T15:55:49.569Z,41.58
2022-10-01T15:58:20.919Z,38.83
2022-10-01T16:00:48.831Z,48.53
2022-10-01T16:03:21.453Z,56.97
2022-10-01T16:05:48.720Z,53.63
2022-10-01T16:08:21.942Z,52.15
2022-10-01T16:11:09.777Z,46.23
2022-10-01T16:13:39.213Z,48.83
2022-10-01T16:16:26.369Z,52.95
2022-10-01T16:19:19.057Z,47.70
2022-10-01T16:22:17.531Z,41.80
2022-10-01T16:24:47.353Z,36.70
2022-10-01T16:27:19.870Z,37.38
2022-10-01T16:30:01.229Z,47.72
2022-10-01T16:32:31.431Z,39.25
2022-10-01T16:35:17.711Z,53.83
2022-10-01T16:37:45.802Z,50.85
2022-10-01T16:40:16.182Z,52.45
2022-10-01T16:42:44.373Z,46.88
2022-10-01T16:45:19.836Z,45.03
2022-10-01T16:47:46.814Z,36.58
2022-10-01T16:50:16.494Z,33.85
2022-10-01T16:52:43.616Z,36.60
2022-10-01T16:55:22.668Z,39.03
2022-10-01T16:57:50.301Z,33.75
2022-10-01T17:00:19.591Z,28.77
2022-10-01T17:02:47.159Z,28.83
2022-10-01T17:05:31.761Z,29.65
2022-10-01T17:08:00.922Z,30.08
2022-10-01T17:10:31.084Z,24.67
2022-10-01T17:12:59.475Z,26.15
2022-10-01T17:15:28.327Z,27.05
2022-10-01T17:17:56.909Z,28.30
2022-10-01T17:20:26.418Z,27.13
2022-10-01T17:22:52.988Z,31.75
2022-10-01T17:25:25.322Z,29.90
2022-10-01T17:27:52.377Z,29.77
2022-10-01T17:30:19.050Z,28.70
2022-10-01T17:32:46.957Z,30.88
2022-10-01T17:35:15.371Z,37.22
2022-10-01T17:37:42.795Z,33.85
2022-10-01T17:40:11.045Z,29.25
2022-10-01T17:42:37.799Z,28.38
2022-10-01T17:45:07.625Z,30.25
2022-10-01T17:47:34.342Z,30.77
2022-10-01T17:50:02.962Z,29.13
2022-10-01T17:52:29.966Z,31.20
2022-10-01T17:54:56.680Z,31.52
2022-10-01T17:57:23.383Z,34.33
2022-10-01T17:59:51.702Z,31.00
2022-10-01T18:02:40.432Z,30.55
2022-10-01T18:05:09.531Z,28.42
2022-10-01T18:07:39.200Z,29.08
2022-10-01T18:10:07.654Z,27.40
2022-10-01T18:12:35.001Z,30.42
2022-10-01T18:15:02.068Z,31.80
2022-10-01T18:17:29.399Z,31.25
2022-10-01T18:19:57.235Z,29.45
2022-10-01T18:22:24.239Z,30.48
2022-10-01T18:24:50.847Z,34.75
2022-10-01T18:27:17.670Z,32.35
2022-10-01T18:29:44.356Z,39.45
2022-10-01T18:32:19.425Z,35.80
2022-10-01T18:34:59.148Z,39.88
2022-10-01T18:37:40.291Z,35.97
2022-10-01T18:40:28.977Z,38.05
2022-10-01T18:43:13.194Z,26.58
2022-10-01T18:46:01.105Z,32.20
2022-10-01T18:48:33.662Z,44.22
2022-10-01T18:51:35.342Z,32.55
2022-10-01T18:55:00.245Z,26.05
2022-10-01T18:57:58.461Z,38.60
2022-10-01T19:00:31.899Z,34.25
2022-10-01T19:03:32.912Z,33.08
2022-10-01T19:06:23.951Z,39.53
2022-10-01T19:09:24.351Z,19.65
2022-10-01T19:12:00.383Z,37.42
2022-10-01T19:14:45.111Z,37.45
2022-10-01T19:17:24.769Z,32.55
2022-10-01T19:20:28.744Z,46.85
2022-10-01T19:23:19.936Z,11.77
2022-10-01T19:26:01.859Z,19.40
2022-10-01T19:28:42.940Z,30.23
2022-10-01T19:31:17.587Z,29.02
2022-10-01T19:33:52.500Z,14.23
2022-10-01T19:36:34.366Z,62.72
2022-10-01T19:39:05.369Z,16.98
2022-10-01T19:41:49.116Z,14.82
2022-10-01T19:44:24.219Z,17.60
2022-10-01T19:49:38.602Z,10.18
2022-10-01T19:52:18.367Z,81.70
2022-10-01T19:54:54.757Z,20.15
2022-10-01T19:57:34.809Z,28.70
2022-10-01T20:00:10.157Z,55.75
2022-10-01T20:03:00.546Z,40.15
2022-10-01T20:05:32.176Z,32.10
2022-10-01T20:08:25.007Z,32.10
2022-10-01T20:10:54.960Z,25.80
2022-10-01T20:13:40.170Z,28.95
2022-10-01T20:16:16.578Z,28.35
2022-10-01T20:18:49.292Z,27.60
2022-10-01T20:21:55.507Z,28.58
2022-10-01T20:24:42.658Z,26.60
2022-10-01T20:27:37.399Z,26.27
2022-10-01T20:32:46.759Z,19.67
2022-10-01T20:35:19.190Z,27.38
2022-10-01T20:38:00.379Z,49.33
2022-10-01T20:40:36.096Z,53.00
2022-10-01T20:43:21.879Z,48.83
2022-10-01T20:45:53.503Z,58.17
2022-10-01T20:48:39.820Z,78.55
2022-10-01T20:51:12.363Z,80.53
2022-10-01T20:53:45.280Z,102.32
2022-10-01T20:56:32.490Z,72.10
2022-10-01T20:59:05.151Z,64.15
2022-10-01T21:01:41.815Z,73.00
2022-10-01T21:04:21.810Z,73.35
2022-10-01T21:06:51.866Z,60.28
2022-10-01T21:09:28.006Z,78.90
2022-10-01T21:12:03.104Z,69.68
2022-10-01T21:14:38.618Z,57.45
2022-10-01T21:17:08.993Z,53.30
2022-10-01T21:19:57.154Z,52.45
2022-10-01T21:22:56.510Z,43.97
2022-10-01T21:25:38.180Z,46.50
2022-10-01T21:28:26.853Z,55.67
2022-10-01T21:31:18.070Z,38.17
2022-10-01T21:34:00.994Z,36.25
2022-10-01T21:36:48.017Z,30.98
2022-10-01T21:39:30.602Z,28.25
2022-10-01T21:42:15.899Z,28.85
2022-10-01T21:44:51.345Z,53.92
2022-10-01T21:47:24.118Z,48.50
2022-10-01T21:49:57.185Z,40.15
2022-10-01T21:52:31.580Z,35.60
2022-10-01T21:55:25.279Z,34.72
2022-10-01T21:58:13.961Z,35.80
2022-10-01T22:00:42.799Z,35.38
2022-10-01T22:03:12.308Z,38.63
2022-10-01T22:05:57.765Z,36.50
2022-10-01T22:08:41.789Z,33.65
2022-10-01T22:11:15.669Z,32.60
2022-10-01T22:13:53.530Z,29.35
2022-10-01T22:16:22.530Z,32.38
2022-10-01T22:19:06.464Z,32.50
2022-10-01T22:21:59.651Z,21.45
2022-10-01T22:24:39.737Z,29.27
2022-10-01T22:27:22.639Z,31.83
2022-10-01T22:30:02.898Z,27.77
2022-10-01T22:32:40.403Z,23.08
2022-10-01T22:35:15.845Z,39.53
2022-10-01T22:38:13.862Z,34.90
2022-10-01T22:40:51.643Z,29.60
2022-10-01T22:43:18.814Z,30.63
2022-10-01T22:46:09.858Z,35.35
2022-10-01T22:48:57.284Z,31.67
2022-10-01T22:51:42.434Z,28.35
2022-10-01T22:54:21.881Z,26.98
2022-10-01T22:57:05.334Z,19.20
2022-10-01T23:00:09.696Z,33.85
2022-10-01T23:02:39.708Z,25.63
2022-10-01T23:05:30.101Z,24.90
2022-10-01T23:08:09.698Z,27.27
2022-10-01T23:11:05.918Z,22.45
2022-10-01T23:13:44.836Z,18.35
2022-10-01T23:16:19.814Z,24.85
2022-10-01T23:18:58.993Z,28.27
2022-10-01T23:21:35.025Z,25.52
2022-10-01T23:24:14.646Z,25.42
2022-10-01T23:27:27.857Z,23.85
2022-10-01T23:30:10.474Z,16.45
2022-10-01T23:33:12.183Z,17.90
2022-10-01T23:35:47.945Z,12.82
2022-10-01T23:38:20.852Z,16.00
2022-10-01T23:40:51.936Z,14.70
2022-10-01T23:43:37.807Z,19.77
2022-10-01T23:46:22.625Z,16.45
2022-10-01T23:49:05.484Z,14.35
2022-10-01T23:51:47.889Z,14.32
2022-10-01T23:54:33.276Z,13.65
2022-10-01T23:57:12.670Z,15.52
2022-10-01T23:59:51.809Z,13.95
